sensor_id;sensor_type;location;lat;lon;timestamp;P1;durP1;ratioP1;P2;durP2;ratioP2
47113;SDS011;32867;51.556;6.832;2023-04-25T00:03:29;14.27;;;5.63;;
47113;SDS011;32867;51.556;6.832;2023-04-25T00:08:29;17.30;;;5.72;;
47113;SDS011;32867;51.556;6.832;2023-04-25T00:13:31;15.52;;;6.43;;
47113;SDS011;32867;51.556;6.832;2023-04-25T00:18:32;16.15;;;6.10;;
47113;SDS011;32867;51.556;6.832;2023-04-25T00:23:33;15.73;;;6.30;;
47113;SDS011;32867;51.556;6.832;2023-04-25T00:28:36;17.73;;;7.28;;
47113;SDS011;32867;51.556;6.832;2023-04-25T00:33:37;15.70;;;6.82;;
47113;SDS011;32867;51.556;6.832;2023-04-25T00:38:38;18.25;;;7.53;;
47113;SDS011;32867;51.556;6.832;2023-04-25T00:43:38;17.85;;;7.32;;
47113;SDS011;32867;51.556;6.832;2023-04-25T00:48:40;24.08;;;7.50;;
47113;SDS011;32867;51.556;6.832;2023-04-25T00:53:41;18.13;;;7.70;;
47113;SDS011;32867;51.556;6.832;2023-04-25T00:58:42;16.13;;;7.32;;
47113;SDS011;32867;51.556;6.832;2023-04-25T01:03:43;20.27;;;7.50;;
47113;SDS011;32867;51.556;6.832;2023-04-25T01:08:47;19.58;;;7.43;;
47113;SDS011;32867;51.556;6.832;2023-04-25T01:13:47;26.98;;;8.32;;
47113;SDS011;32867;51.556;6.832;2023-04-25T01:18:48;23.27;;;8.10;;
47113;SDS011;32867;51.556;6.832;2023-04-25T01:23:50;20.30;;;7.30;;
47113;SDS011;32867;51.556;6.832;2023-04-25T01:28:51;20.33;;;7.75;;
47113;SDS011;32867;51.556;6.832;2023-04-25T01:33:52;21.50;;;7.57;;
47113;SDS011;32867;51.556;6.832;2023-04-25T01:38:53;17.65;;;7.43;;
47113;SDS011;32867;51.556;6.832;2023-04-25T01:43:56;18.80;;;7.70;;
47113;SDS011;32867;51.556;6.832;2023-04-25T01:48:57;12.75;;;6.93;;
47113;SDS011;32867;51.556;6.832;2023-04-25T01:53:58;17.27;;;7.00;;
47113;SDS011;32867;51.556;6.832;2023-04-25T01:58:59;17.20;;;7.72;;
47113;SDS011;32867;51.556;6.832;2023-04-25T02:04:17;17.95;;;7.10;;
47113;SDS011;32867;51.556;6.832;2023-04-25T02:09:18;18.05;;;7.38;;
47113;SDS011;32867;51.556;6.832;2023-04-25T02:14:24;19.83;;;7.87;;
47113;SDS011;32867;51.556;6.832;2023-04-25T02:19:45;19.42;;;7.50;;
47113;SDS011;32867;51.556;6.832;2023-04-25T02:24:46;21.52;;;7.45;;
47113;SDS011;32867;51.556;6.832;2023-04-25T02:29:48;19.90;;;6.97;;
47113;SDS011;32867;51.556;6.832;2023-04-25T02:34:48;20.55;;;8.10;;
47113;SDS011;32867;51.556;6.832;2023-04-25T02:39:49;17.08;;;6.40;;
47113;SDS011;32867;51.556;6.832;2023-04-25T02:44:50;21.88;;;7.60;;
47113;SDS011;32867;51.556;6.832;2023-04-25T02:49:50;19.17;;;8.07;;
47113;SDS011;32867;51.556;6.832;2023-04-25T02:54:51;20.75;;;7.90;;
47113;SDS011;32867;51.556;6.832;2023-04-25T02:59:52;19.10;;;8.15;;
47113;SDS011;32867;51.556;6.832;2023-04-25T03:04:52;21.83;;;8.18;;
47113;SDS011;32867;51.556;6.832;2023-04-25T03:09:53;25.38;;;9.80;;
47113;SDS011;32867;51.556;6.832;2023-04-25T03:14:56;20.00;;;7.38;;
47113;SDS011;32867;51.556;6.832;2023-04-25T03:19:57;17.33;;;7.07;;
47113;SDS011;32867;51.556;6.832;2023-04-25T03:24:58;17.83;;;6.75;;
47113;SDS011;32867;51.556;6.832;2023-04-25T03:29:58;19.98;;;8.23;;
47113;SDS011;32867;51.556;6.832;2023-04-25T03:34:59;18.75;;;7.97;;
47113;SDS011;32867;51.556;6.832;2023-04-25T03:40:01;24.08;;;8.07;;
47113;SDS011;32867;51.556;6.832;2023-04-25T03:45:22;21.95;;;7.32;;
47113;SDS011;32867;51.556;6.832;2023-04-25T03:50:23;25.02;;;7.50;;
47113;SDS011;32867;51.556;6.832;2023-04-25T03:55:24;22.50;;;8.18;;
47113;SDS011;32867;51.556;6.832;2023-04-25T04:00:25;22.33;;;8.23;;
47113;SDS011;32867;51.556;6.832;2023-04-25T04:05:28;26.58;;;9.23;;
47113;SDS011;32867;51.556;6.832;2023-04-25T04:10:30;26.40;;;8.98;;
47113;SDS011;32867;51.556;6.832;2023-04-25T04:15:31;24.15;;;8.98;;
47113;SDS011;32867;51.556;6.832;2023-04-25T04:20:33;21.90;;;8.30;;
47113;SDS011;32867;51.556;6.832;2023-04-25T04:25:33;30.17;;;8.85;;
47113;SDS011;32867;51.556;6.832;2023-04-25T04:30:42;25.33;;;8.88;;
47113;SDS011;32867;51.556;6.832;2023-04-25T04:35:47;19.90;;;8.30;;
47113;SDS011;32867;51.556;6.832;2023-04-25T04:40:49;24.42;;;8.60;;
47113;SDS011;32867;51.556;6.832;2023-04-25T04:45:56;27.13;;;8.37;;
47113;SDS011;32867;51.556;6.832;2023-04-25T04:51:15;20.25;;;7.53;;
47113;SDS011;32867;51.556;6.832;2023-04-25T04:56:33;27.25;;;9.27;;
47113;SDS011;32867;51.556;6.832;2023-04-25T05:01:48;23.55;;;8.00;;
47113;SDS011;32867;51.556;6.832;2023-04-25T05:07:11;17.80;;;7.03;;
47113;SDS011;32867;51.556;6.832;2023-04-25T05:12:31;23.65;;;7.82;;
47113;SDS011;32867;51.556;6.832;2023-04-25T05:18:05;21.30;;;7.63;;
47113;SDS011;32867;51.556;6.832;2023-04-25T05:23:24;24.02;;;9.25;;
47113;SDS011;32867;51.556;6.832;2023-04-25T05:28:57;21.45;;;8.43;;
47113;SDS011;32867;51.556;6.832;2023-04-25T05:34:16;19.25;;;8.15;;
47113;SDS011;32867;51.556;6.832;2023-04-25T05:39:26;27.33;;;8.98;;
47113;SDS011;32867;51.556;6.832;2023-04-25T05:44:47;18.27;;;7.15;;
47113;SDS011;32867;51.556;6.832;2023-04-25T05:49:56;22.98;;;8.05;;
47113;SDS011;32867;51.556;6.832;2023-04-25T05:55:07;22.50;;;7.00;;
47113;SDS011;32867;51.556;6.832;2023-04-25T06:00:09;23.13;;;6.72;;
47113;SDS011;32867;51.556;6.832;2023-04-25T06:05:17;19.48;;;6.43;;
47113;SDS011;32867;51.556;6.832;2023-04-25T06:10:20;13.48;;;5.68;;
47113;SDS011;32867;51.556;6.832;2023-04-25T06:15:21;15.57;;;5.20;;
47113;SDS011;32867;51.556;6.832;2023-04-25T06:20:22;14.80;;;4.80;;
47113;SDS011;32867;51.556;6.832;2023-04-25T06:25:26;15.60;;;5.32;;
47113;SDS011;32867;51.556;6.832;2023-04-25T06:30:28;19.95;;;5.95;;
47113;SDS011;32867;51.556;6.832;2023-04-25T06:35:35;13.52;;;5.57;;
47113;SDS011;32867;51.556;6.832;2023-04-25T06:40:37;12.18;;;4.07;;
47113;SDS011;32867;51.556;6.832;2023-04-25T06:45:39;14.23;;;5.72;;
47113;SDS011;32867;51.556;6.832;2023-04-25T06:50:42;11.95;;;3.83;;
47113;SDS011;32867;51.556;6.832;2023-04-25T06:55:43;10.80;;;3.35;;
47113;SDS011;32867;51.556;6.832;2023-04-25T07:00:49;10.55;;;3.67;;
47113;SDS011;32867;51.556;6.832;2023-04-25T07:05:51;9.50;;;3.53;;
47113;SDS011;32867;51.556;6.832;2023-04-25T07:10:52;12.10;;;3.47;;
47113;SDS011;32867;51.556;6.832;2023-04-25T07:15:52;18.05;;;4.22;;
47113;SDS011;32867;51.556;6.832;2023-04-25T07:20:55;12.73;;;4.25;;
47113;SDS011;32867;51.556;6.832;2023-04-25T07:25:56;17.10;;;4.38;;
47113;SDS011;32867;51.556;6.832;2023-04-25T07:30:59;12.82;;;3.63;;
47113;SDS011;32867;51.556;6.832;2023-04-25T07:36:00;9.30;;;3.70;;
47113;SDS011;32867;51.556;6.832;2023-04-25T07:41:01;9.65;;;3.63;;
47113;SDS011;32867;51.556;6.832;2023-04-25T07:46:02;11.77;;;3.80;;
47113;SDS011;32867;51.556;6.832;2023-04-25T07:51:06;15.90;;;3.67;;
47113;SDS011;32867;51.556;6.832;2023-04-25T07:56:09;9.20;;;3.17;;
47113;SDS011;32867;51.556;6.832;2023-04-25T08:01:13;12.07;;;2.78;;
47113;SDS011;32867;51.556;6.832;2023-04-25T08:06:26;7.30;;;2.70;;
47113;SDS011;32867;51.556;6.832;2023-04-25T08:11:56;12.80;;;2.65;;
47113;SDS011;32867;51.556;6.832;2023-04-25T08:17:02;9.15;;;2.83;;
47113;SDS011;32867;51.556;6.832;2023-04-25T08:22:05;12.13;;;2.72;;
47113;SDS011;32867;51.556;6.832;2023-04-25T08:27:17;10.82;;;2.40;;
47113;SDS011;32867;51.556;6.832;2023-04-25T08:32:19;10.82;;;2.60;;
47113;SDS011;32867;51.556;6.832;2023-04-25T08:37:34;10.93;;;2.80;;
47113;SDS011;32867;51.556;6.832;2023-04-25T08:42:44;9.20;;;2.22;;
47113;SDS011;32867;51.556;6.832;2023-04-25T08:47:50;8.25;;;2.47;;
47113;SDS011;32867;51.556;6.832;2023-04-25T08:52:54;8.30;;;2.38;;
47113;SDS011;32867;51.556;6.832;2023-04-25T08:57:59;8.95;;;2.10;;
47113;SDS011;32867;51.556;6.832;2023-04-25T09:03:01;11.65;;;2.88;;
47113;SDS011;32867;51.556;6.832;2023-04-25T09:08:05;11.50;;;2.30;;
47113;SDS011;32867;51.556;6.832;2023-04-25T09:18:35;10.80;;;2.13;;
47113;SDS011;32867;51.556;6.832;2023-04-25T09:23:46;7.68;;;2.03;;
47113;SDS011;32867;51.556;6.832;2023-04-25T09:28:48;8.32;;;2.55;;
47113;SDS011;32867;51.556;6.832;2023-04-25T09:33:58;8.82;;;2.35;;
47113;SDS011;32867;51.556;6.832;2023-04-25T09:39:01;9.88;;;2.42;;
47113;SDS011;32867;51.556;6.832;2023-04-25T09:44:06;11.80;;;2.05;;
47113;SDS011;32867;51.556;6.832;2023-04-25T09:49:10;10.38;;;2.13;;
47113;SDS011;32867;51.556;6.832;2023-04-25T09:54:21;11.68;;;2.40;;
47113;SDS011;32867;51.556;6.832;2023-04-25T09:59:25;11.25;;;2.40;;
47113;SDS011;32867;51.556;6.832;2023-04-25T10:04:26;8.23;;;2.08;;
47113;SDS011;32867;51.556;6.832;2023-04-25T10:09:37;9.07;;;1.80;;
47113;SDS011;32867;51.556;6.832;2023-04-25T10:14:39;7.82;;;2.83;;
47113;SDS011;32867;51.556;6.832;2023-04-25T10:19:41;11.48;;;2.03;;
47113;SDS011;32867;51.556;6.832;2023-04-25T10:24:42;6.30;;;1.70;;
47113;SDS011;32867;51.556;6.832;2023-04-25T10:29:44;6.28;;;1.90;;
47113;SDS011;32867;51.556;6.832;2023-04-25T10:34:44;5.45;;;1.65;;
47113;SDS011;32867;51.556;6.832;2023-04-25T10:39:48;5.88;;;1.70;;
47113;SDS011;32867;51.556;6.832;2023-04-25T10:45:02;6.85;;;1.67;;
47113;SDS011;32867;51.556;6.832;2023-04-25T10:50:06;4.40;;;1.35;;
47113;SDS011;32867;51.556;6.832;2023-04-25T10:55:08;4.53;;;1.27;;
47113;SDS011;32867;51.556;6.832;2023-04-25T11:00:19;4.93;;;1.33;;
47113;SDS011;32867;51.556;6.832;2023-04-25T11:05:32;5.40;;;1.38;;
47113;SDS011;32867;51.556;6.832;2023-04-25T11:10:34;4.40;;;1.42;;
47113;SDS011;32867;51.556;6.832;2023-04-25T11:15:37;5.07;;;1.40;;
47113;SDS011;32867;51.556;6.832;2023-04-25T11:20:38;7.55;;;1.60;;
47113;SDS011;32867;51.556;6.832;2023-04-25T11:25:39;4.20;;;1.40;;
47113;SDS011;32867;51.556;6.832;2023-04-25T11:30:39;4.60;;;1.50;;
47113;SDS011;32867;51.556;6.832;2023-04-25T11:35:47;7.97;;;2.03;;
47113;SDS011;32867;51.556;6.832;2023-04-25T11:40:51;6.47;;;1.85;;
47113;SDS011;32867;51.556;6.832;2023-04-25T11:45:52;6.70;;;1.92;;
47113;SDS011;32867;51.556;6.832;2023-04-25T11:50:53;6.50;;;1.80;;
47113;SDS011;32867;51.556;6.832;2023-04-25T11:55:55;5.53;;;1.95;;
47113;SDS011;32867;51.556;6.832;2023-04-25T12:00:56;7.80;;;2.17;;
47113;SDS011;32867;51.556;6.832;2023-04-25T12:06:02;6.85;;;1.83;;
47113;SDS011;32867;51.556;6.832;2023-04-25T12:11:03;6.28;;;1.88;;
47113;SDS011;32867;51.556;6.832;2023-04-25T12:16:04;4.30;;;1.70;;
47113;SDS011;32867;51.556;6.832;2023-04-25T12:21:05;8.35;;;1.85;;
47113;SDS011;32867;51.556;6.832;2023-04-25T12:26:06;4.47;;;1.50;;
47113;SDS011;32867;51.556;6.832;2023-04-25T12:31:07;3.33;;;1.38;;
47113;SDS011;32867;51.556;6.832;2023-04-25T12:36:08;5.07;;;1.30;;
47113;SDS011;32867;51.556;6.832;2023-04-25T12:41:10;4.20;;;1.27;;
47113;SDS011;32867;51.556;6.832;2023-04-25T12:46:11;5.53;;;1.38;;
47113;SDS011;32867;51.556;6.832;2023-04-25T12:51:11;8.15;;;2.05;;
47113;SDS011;32867;51.556;6.832;2023-04-25T12:56:12;4.85;;;1.45;;
47113;SDS011;32867;51.556;6.832;2023-04-25T13:01:13;4.40;;;1.60;;
47113;SDS011;32867;51.556;6.832;2023-04-25T13:06:14;5.47;;;1.85;;
47113;SDS011;32867;51.556;6.832;2023-04-25T13:11:16;6.68;;;1.80;;
47113;SDS011;32867;51.556;6.832;2023-04-25T13:16:17;7.57;;;2.00;;
47113;SDS011;32867;51.556;6.832;2023-04-25T13:21:20;7.25;;;1.98;;
47113;SDS011;32867;51.556;6.832;2023-04-25T13:26:21;4.78;;;1.52;;
47113;SDS011;32867;51.556;6.832;2023-04-25T13:31:21;5.47;;;1.52;;
47113;SDS011;32867;51.556;6.832;2023-04-25T13:36:22;4.53;;;1.30;;
47113;SDS011;32867;51.556;6.832;2023-04-25T13:41:22;7.10;;;1.58;;
47113;SDS011;32867;51.556;6.832;2023-04-25T13:46:23;4.53;;;1.15;;
47113;SDS011;32867;51.556;6.832;2023-04-25T13:51:24;3.70;;;1.52;;
47113;SDS011;32867;51.556;6.832;2023-04-25T13:56:26;4.30;;;1.42;;
47113;SDS011;32867;51.556;6.832;2023-04-25T14:01:27;3.88;;;1.40;;
47113;SDS011;32867;51.556;6.832;2023-04-25T14:06:28;3.20;;;1.30;;
47113;SDS011;32867;51.556;6.832;2023-04-25T14:11:28;5.72;;;1.70;;
47113;SDS011;32867;51.556;6.832;2023-04-25T14:16:29;4.00;;;1.20;;
47113;SDS011;32867;51.556;6.832;2023-04-25T14:21:31;3.00;;;1.27;;
47113;SDS011;32867;51.556;6.832;2023-04-25T14:26:33;7.63;;;1.80;;
47113;SDS011;32867;51.556;6.832;2023-04-25T14:31:35;6.53;;;1.50;;
47113;SDS011;32867;51.556;6.832;2023-04-25T14:36:36;5.85;;;1.63;;
47113;SDS011;32867;51.556;6.832;2023-04-25T14:41:37;6.78;;;1.92;;
47113;SDS011;32867;51.556;6.832;2023-04-25T14:46:37;7.60;;;2.85;;
47113;SDS011;32867;51.556;6.832;2023-04-25T14:51:38;10.50;;;3.10;;
47113;SDS011;32867;51.556;6.832;2023-04-25T14:56:38;5.85;;;2.08;;
47113;SDS011;32867;51.556;6.832;2023-04-25T15:01:39;5.68;;;1.85;;
47113;SDS011;32867;51.556;6.832;2023-04-25T15:06:41;7.50;;;2.70;;
47113;SDS011;32867;51.556;6.832;2023-04-25T15:11:42;6.90;;;1.85;;
47113;SDS011;32867;51.556;6.832;2023-04-25T15:16:43;5.43;;;1.40;;
47113;SDS011;32867;51.556;6.832;2023-04-25T15:21:43;4.35;;;1.50;;
47113;SDS011;32867;51.556;6.832;2023-04-25T15:26:44;6.72;;;1.88;;
47113;SDS011;32867;51.556;6.832;2023-04-25T15:31:45;6.03;;;1.58;;
47113;SDS011;32867;51.556;6.832;2023-04-25T15:36:46;4.45;;;1.50;;
47113;SDS011;32867;51.556;6.832;2023-04-25T15:41:47;4.03;;;1.40;;
47113;SDS011;32867;51.556;6.832;2023-04-25T15:46:48;4.82;;;1.75;;
47113;SDS011;32867;51.556;6.832;2023-04-25T15:51:49;5.40;;;1.20;;
47113;SDS011;32867;51.556;6.832;2023-04-25T15:56:50;6.00;;;1.65;;
47113;SDS011;32867;51.556;6.832;2023-04-25T16:01:51;5.72;;;1.58;;
47113;SDS011;32867;51.556;6.832;2023-04-25T16:06:52;4.38;;;1.48;;
47113;SDS011;32867;51.556;6.832;2023-04-25T16:11:53;4.75;;;1.50;;
47113;SDS011;32867;51.556;6.832;2023-04-25T16:16:54;8.07;;;2.35;;
47113;SDS011;32867;51.556;6.832;2023-04-25T16:21:55;5.28;;;1.55;;
47113;SDS011;32867;51.556;6.832;2023-04-25T16:26:56;3.20;;;1.20;;
47113;SDS011;32867;51.556;6.832;2023-04-25T16:31:56;5.45;;;1.48;;
47113;SDS011;32867;51.556;6.832;2023-04-25T16:36:57;6.25;;;1.50;;
47113;SDS011;32867;51.556;6.832;2023-04-25T16:41:58;5.50;;;1.52;;
47113;SDS011;32867;51.556;6.832;2023-04-25T16:46:59;5.43;;;1.60;;
47113;SDS011;32867;51.556;6.832;2023-04-25T16:52:00;5.90;;;1.75;;
47113;SDS011;32867;51.556;6.832;2023-04-25T16:57:01;6.28;;;1.58;;
47113;SDS011;32867;51.556;6.832;2023-04-25T17:02:03;6.32;;;1.55;;
47113;SDS011;32867;51.556;6.832;2023-04-25T17:07:04;7.53;;;1.65;;
47113;SDS011;32867;51.556;6.832;2023-04-25T17:12:05;3.85;;;1.48;;
47113;SDS011;32867;51.556;6.832;2023-04-25T17:17:07;6.20;;;1.63;;
47113;SDS011;32867;51.556;6.832;2023-04-25T17:22:07;4.05;;;1.50;;
47113;SDS011;32867;51.556;6.832;2023-04-25T17:27:09;3.72;;;1.40;;
47113;SDS011;32867;51.556;6.832;2023-04-25T17:32:10;3.35;;;1.38;;
47113;SDS011;32867;51.556;6.832;2023-04-25T17:37:10;5.25;;;1.40;;
47113;SDS011;32867;51.556;6.832;2023-04-25T17:42:15;8.07;;;1.88;;
47113;SDS011;32867;51.556;6.832;2023-04-25T17:47:15;4.93;;;1.40;;
47113;SDS011;32867;51.556;6.832;2023-04-25T17:52:16;4.05;;;1.50;;
47113;SDS011;32867;51.556;6.832;2023-04-25T17:57:17;7.22;;;1.95;;
47113;SDS011;32867;51.556;6.832;2023-04-25T18:02:18;5.38;;;2.00;;
47113;SDS011;32867;51.556;6.832;2023-04-25T18:07:18;4.40;;;1.70;;
47113;SDS011;32867;51.556;6.832;2023-04-25T18:12:20;3.28;;;1.38;;
47113;SDS011;32867;51.556;6.832;2023-04-25T18:17:20;6.68;;;1.70;;
47113;SDS011;32867;51.556;6.832;2023-04-25T18:22:24;6.47;;;1.80;;
47113;SDS011;32867;51.556;6.832;2023-04-25T18:27:25;6.60;;;2.00;;
47113;SDS011;32867;51.556;6.832;2023-04-25T18:32:26;5.07;;;1.65;;
47113;SDS011;32867;51.556;6.832;2023-04-25T18:37:30;5.00;;;1.48;;
47113;SDS011;32867;51.556;6.832;2023-04-25T18:42:31;5.15;;;1.60;;
47113;SDS011;32867;51.556;6.832;2023-04-25T18:47:32;9.75;;;3.42;;
47113;SDS011;32867;51.556;6.832;2023-04-25T18:52:33;6.75;;;2.05;;
47113;SDS011;32867;51.556;6.832;2023-04-25T18:57:34;6.72;;;1.75;;
47113;SDS011;32867;51.556;6.832;2023-04-25T19:02:35;6.03;;;1.75;;
47113;SDS011;32867;51.556;6.832;2023-04-25T19:07:36;5.10;;;1.60;;
47113;SDS011;32867;51.556;6.832;2023-04-25T19:12:37;5.22;;;1.52;;
47113;SDS011;32867;51.556;6.832;2023-04-25T19:17:37;3.78;;;1.30;;
47113;SDS011;32867;51.556;6.832;2023-04-25T19:22:38;2.85;;;1.60;;
47113;SDS011;32867;51.556;6.832;2023-04-25T19:27:39;5.13;;;1.50;;
47113;SDS011;32867;51.556;6.832;2023-04-25T19:32:40;3.15;;;1.30;;
47113;SDS011;32867;51.556;6.832;2023-04-25T19:37:40;4.47;;;1.48;;
47113;SDS011;32867;51.556;6.832;2023-04-25T19:42:45;4.72;;;1.40;;
47113;SDS011;32867;51.556;6.832;2023-04-25T19:47:45;4.85;;;1.30;;
47113;SDS011;32867;51.556;6.832;2023-04-25T19:52:47;4.28;;;1.40;;
47113;SDS011;32867;51.556;6.832;2023-04-25T19:57:47;2.42;;;1.10;;
47113;SDS011;32867;51.556;6.832;2023-04-25T20:02:48;4.03;;;1.40;;
47113;SDS011;32867;51.556;6.832;2023-04-25T20:07:49;3.05;;;1.30;;
47113;SDS011;32867;51.556;6.832;2023-04-25T20:12:49;2.65;;;1.27;;
47113;SDS011;32867;51.556;6.832;2023-04-25T20:17:50;4.72;;;1.40;;
47113;SDS011;32867;51.556;6.832;2023-04-25T20:22:51;3.50;;;1.50;;
47113;SDS011;32867;51.556;6.832;2023-04-25T20:27:53;4.13;;;1.40;;
47113;SDS011;32867;51.556;6.832;2023-04-25T20:32:53;3.53;;;1.45;;
47113;SDS011;32867;51.556;6.832;2023-04-25T20:37:54;5.75;;;1.52;;
47113;SDS011;32867;51.556;6.832;2023-04-25T20:42:55;4.00;;;1.60;;
47113;SDS011;32867;51.556;6.832;2023-04-25T20:47:56;4.78;;;2.25;;
47113;SDS011;32867;51.556;6.832;2023-04-25T20:52:57;6.78;;;2.08;;
47113;SDS011;32867;51.556;6.832;2023-04-25T20:57:58;4.28;;;1.88;;
47113;SDS011;32867;51.556;6.832;2023-04-25T21:02:59;5.80;;;2.25;;
47113;SDS011;32867;51.556;6.832;2023-04-25T21:08:02;4.57;;;2.13;;
47113;SDS011;32867;51.556;6.832;2023-04-25T21:13:03;5.28;;;2.58;;
47113;SDS011;32867;51.556;6.832;2023-04-25T21:18:04;6.68;;;2.30;;
47113;SDS011;32867;51.556;6.832;2023-04-25T21:23:06;4.55;;;1.98;;
47113;SDS011;32867;51.556;6.832;2023-04-25T21:28:07;5.75;;;1.70;;
47113;SDS011;32867;51.556;6.832;2023-04-25T21:33:08;5.53;;;1.60;;
47113;SDS011;32867;51.556;6.832;2023-04-25T21:38:08;5.85;;;1.80;;
47113;SDS011;32867;51.556;6.832;2023-04-25T21:43:09;5.07;;;1.75;;
47113;SDS011;32867;51.556;6.832;2023-04-25T21:48:11;5.07;;;2.15;;
47113;SDS011;32867;51.556;6.832;2023-04-25T21:53:11;6.90;;;3.10;;
47113;SDS011;32867;51.556;6.832;2023-04-25T21:58:12;6.50;;;2.60;;
47113;SDS011;32867;51.556;6.832;2023-04-25T22:03:13;4.20;;;2.00;;
47113;SDS011;32867;51.556;6.832;2023-04-25T22:08:15;5.30;;;1.80;;
47113;SDS011;32867;51.556;6.832;2023-04-25T22:13:16;5.22;;;2.10;;
47113;SDS011;32867;51.556;6.832;2023-04-25T22:18:17;8.13;;;2.58;;
47113;SDS011;32867;51.556;6.832;2023-04-25T22:23:18;6.72;;;2.40;;
47113;SDS011;32867;51.556;6.832;2023-04-25T22:28:19;11.23;;;2.75;;
47113;SDS011;32867;51.556;6.832;2023-04-25T22:33:20;5.93;;;2.70;;
47113;SDS011;32867;51.556;6.832;2023-04-25T22:38:21;9.05;;;2.88;;
47113;SDS011;32867;51.556;6.832;2023-04-25T22:43:22;7.03;;;2.70;;
47113;SDS011;32867;51.556;6.832;2023-04-25T22:48:22;7.55;;;3.10;;
47113;SDS011;32867;51.556;6.832;2023-04-25T22:53:23;5.00;;;2.40;;
47113;SDS011;32867;51.556;6.832;2023-04-25T22:58:24;6.80;;;2.90;;
47113;SDS011;32867;51.556;6.832;2023-04-25T23:03:25;4.85;;;2.30;;
47113;SDS011;32867;51.556;6.832;2023-04-25T23:08:26;5.22;;;2.47;;
47113;SDS011;32867;51.556;6.832;2023-04-25T23:13:26;5.97;;;2.20;;
47113;SDS011;32867;51.556;6.832;2023-04-25T23:18:27;4.35;;;2.08;;
47113;SDS011;32867;51.556;6.832;2023-04-25T23:23:28;4.65;;;2.08;;
47113;SDS011;32867;51.556;6.832;2023-04-25T23:28:29;3.42;;;1.80;;
47113;SDS011;32867;51.556;6.832;2023-04-25T23:33:30;4.28;;;2.28;;
47113;SDS011;32867;51.556;6.832;2023-04-25T23:38:31;5.45;;;2.33;;
47113;SDS011;32867;51.556;6.832;2023-04-25T23:43:31;4.85;;;2.08;;
47113;SDS011;32867;51.556;6.832;2023-04-25T23:48:32;4.90;;;2.17;;
47113;SDS011;32867;51.556;6.832;2023-04-25T23:53:32;4.97;;;2.30;;
47113;SDS011;32867;51.556;6.832;2023-04-25T23:58:33;7.00;;;2.40;;
